ilmateenistus.ee keskkonnaagentuur.ee
EETN Tallinna lennuväli
FTEO31 EETN 191100
TAF EETN 191125Z 1912/2012 33010KT CAVOK TEMPO 1919/2006 VRB02KT
    SCT015 BKN045=

METAR EETN 191550Z 29009KT CAVOK 13/M01 Q1031 NOSIG=
Tallinna lennuväli
EEKA Kärdla lennuväli
FCEO32 EETN 191200 AAA
TAF AMD EEKA 191600Z 1913/1919 CNL=

METAR EEKA 191550Z NIL=
Kärdla lennuväli
EEKE Kuressaare lennuväli
FCEO32 EETN 191400
TAF EEKE 191400Z 1915/1921 35010KT CAVOK=

METAR EEKE 191550Z 33009KT 290V010 CAVOK 14/M00 Q1033=
Kuressaare lennuväli
EEPU Pärnu lennuväli
METAR EEPU 191550Z NIL=
Pärnu lennuväli
EETU Tartu lennuväli
METAR EETU 191550Z AUTO 35011KT 9999 NCD 16/M06 Q1029=
Tartu lennuväli
EEEI Ämari lennuväli
METAR EEEI 191550Z 26007KT CAVOK 10/01 Q1032 NOSIG=
Ämari lennuväli